^^
Saratoga-Weather Station Historical Data
Daily Summary for May 21, 2020 Units:  Both    English   Metric
Daily Weekly Monthly Yearly Custom
  High: Low: Average:
Temperature: 85.3 °F /  29.6 °C 71.4 °F /  21.9 °C 77.4 °F /  25.2 °C
Dew Point: 67.5 °F /  19.7 °C 61.5 °F /  16.4 °C 64.2 °F /  17.9 °C
Humidity: 79% 50% 64%
Wind Speed: 8.1mph /  13km/h - 1.3mph /  2.1km/h
Wind Gust: 13mph /  20.9km/h - -
Wind- - WSW
Pressure: 29.9 in /  1010.8 hPa 29.7 in /  1005.8 hPa -
Precipitation: 0 in /  0.0 mm    
Historical Graphs
 
 
Tabular Data for May 21, 2020
Time Temperature Dew Point Pressure Wind Wind Speed Wind Gust Humidity Rainfall Rate (Hourly) solar
00:04 78.1 °F /  25.6 °C 64 °F /  17.8 °C 29.7in /  1005.8hPa SW 2mph /  3.2km/h 2mph /  3.2km/h 62% 0in /  0.0mm 0 W/m2
00:09 77.4 °F /  25.2 °C 64.2 °F /  17.9 °C 29.7in /  1005.8hPa Calm   1mph /  1.6km/h 64% 0in /  0.0mm 0 W/m2
00:14 76.8 °F /  24.9 °C 64.2 °F /  17.9 °C 29.7in /  1005.8hPa Calm   1mph /  1.6km/h 65% 0in /  0.0mm 0 W/m2
00:19 76.5 °F /  24.7 °C 64.2 °F /  17.9 °C 29.7in /  1005.8hPa SSW 0.9mph /  1.4km/h 1mph /  1.6km/h 66% 0in /  0.0mm 0 W/m2
00:24 75.9 °F /  24.4 °C 64.2 °F /  17.9 °C 29.7in /  1005.8hPa Calm   1mph /  1.6km/h 67% 0in /  0.0mm 0 W/m2
00:30 75.6 °F /  24.2 °C 64.2 °F /  17.9 °C 29.7in /  1005.8hPa SSW 0.9mph /  1.4km/h 2mph /  3.2km/h 68% 0in /  0.0mm 0 W/m2
00:35 75.4 °F /  24.1 °C 64 °F /  17.8 °C 29.7in /  1005.8hPa Calm     68% 0in /  0.0mm 0 W/m2
00:40 75 °F /  23.9 °C 64.2 °F /  17.9 °C 29.7in /  1006.1hPa Calm   2mph /  3.2km/h 69% 0in /  0.0mm 0 W/m2
00:45 74.8 °F /  23.8 °C 64 °F /  17.8 °C 29.7in /  1005.8hPa Calm   2mph /  3.2km/h 69% 0in /  0.0mm 0 W/m2
00:50 74.7 °F /  23.7 °C 63.9 °F /  17.7 °C 29.7in /  1006.1hPa Calm     69% 0in /  0.0mm 0 W/m2
00:55 74.5 °F /  23.6 °C 64 °F /  17.8 °C 29.7in /  1006.1hPa Calm     70% 0in /  0.0mm 0 W/m2
01:00 74.1 °F /  23.4 °C 63.7 °F /  17.6 °C 29.7in /  1006.1hPa Calm   2mph /  3.2km/h 70% 0in /  0.0mm 0 W/m2
01:05 73.9 °F /  23.3 °C 63.5 °F /  17.5 °C 29.7in /  1006.1hPa Calm   1mph /  1.6km/h 70% 0in /  0.0mm 0 W/m2
01:10 73.9 °F /  23.3 °C 63.9 °F /  17.7 °C 29.7in /  1006.1hPa Calm     71% 0in /  0.0mm 0 W/m2
01:15 73.8 °F /  23.2 °C 63.7 °F /  17.6 °C 29.7in /  1006.1hPa Calm     71% 0in /  0.0mm 0 W/m2
01:20 73.4 °F /  23 °C 63.5 °F /  17.5 °C 29.7in /  1006.1hPa Calm     71% 0in /  0.0mm 0 W/m2
01:25 73.2 °F /  22.9 °C 63.3 °F /  17.4 °C 29.7in /  1006.1hPa Calm   1mph /  1.6km/h 71% 0in /  0.0mm 0 W/m2
01:30 73.2 °F /  22.9 °C 63.3 °F /  17.4 °C 29.7in /  1006.1hPa Calm     71% 0in /  0.0mm 0 W/m2
01:36 73 °F /  22.8 °C 63.5 °F /  17.5 °C 29.7in /  1006.1hPa Calm     72% 0in /  0.0mm 0 W/m2
01:41 72.9 °F /  22.7 °C 63.7 °F /  17.6 °C 29.7in /  1006.1hPa Calm   1mph /  1.6km/h 73% 0in /  0.0mm 0 W/m2
01:46 72.7 °F /  22.6 °C 63.5 °F /  17.5 °C 29.7in /  1006.1hPa Calm   1mph /  1.6km/h 73% 0in /  0.0mm 0 W/m2
01:51 72.5 °F /  22.5 °C 63.7 °F /  17.6 °C 29.7in /  1006.1hPa Calm     74% 0in /  0.0mm 0 W/m2
01:56 72.3 °F /  22.4 °C 63.5 °F /  17.5 °C 29.7in /  1006.1hPa Calm     74% 0in /  0.0mm 0 W/m2
02:01 72.1 °F /  22.3 °C 63.3 °F /  17.4 °C 29.7in /  1006.1hPa Calm     74% 0in /  0.0mm 0 W/m2
02:06 72.1 °F /  22.3 °C 63.3 °F /  17.4 °C 29.7in /  1005.8hPa Calm   1mph /  1.6km/h 74% 0in /  0.0mm 0 W/m2
02:11 72 °F /  22.2 °C 63.7 °F /  17.6 °C 29.7in /  1006.1hPa Calm   1mph /  1.6km/h 75% 0in /  0.0mm 0 W/m2
02:16 72 °F /  22.2 °C 63.1 °F /  17.3 °C 29.7in /  1005.8hPa Calm   1mph /  1.6km/h 74% 0in /  0.0mm 0 W/m2
02:21 72 °F /  22.2 °C 62.4 °F /  16.9 °C 29.7in /  1005.8hPa ENE 0.9mph /  1.4km/h 1mph /  1.6km/h 72% 0in /  0.0mm 0 W/m2
02:26 72.1 °F /  22.3 °C 62.6 °F /  17 °C 29.7in /  1006.1hPa Calm   2mph /  3.2km/h 72% 0in /  0.0mm 0 W/m2
02:31 72.5 °F /  22.5 °C 63 °F /  17.2 °C 29.7in /  1006.1hPa Calm   1mph /  1.6km/h 72% 0in /  0.0mm 0 W/m2
02:36 72.7 °F /  22.6 °C 62.2 °F /  16.8 °C 29.7in /  1005.8hPa North 0.9mph /  1.4km/h 1mph /  1.6km/h 70% 0in /  0.0mm 0 W/m2
02:41 72.9 °F /  22.7 °C 63.3 °F /  17.4 °C 29.7in /  1005.8hPa Calm   1mph /  1.6km/h 72% 0in /  0.0mm 0 W/m2
02:46 72.9 °F /  22.7 °C 63 °F /  17.2 °C 29.7in /  1005.8hPa WSW 0.9mph /  1.4km/h 1mph /  1.6km/h 71% 0in /  0.0mm 0 W/m2
02:51 72.9 °F /  22.7 °C 63.3 °F /  17.4 °C 29.7in /  1005.8hPa WSW 0.9mph /  1.4km/h 2mph /  3.2km/h 72% 0in /  0.0mm 0 W/m2
02:56 72.9 °F /  22.7 °C 63 °F /  17.2 °C 29.7in /  1005.8hPa Calm   1mph /  1.6km/h 71% 0in /  0.0mm 0 W/m2
03:01 73 °F /  22.8 °C 63.5 °F /  17.5 °C 29.7in /  1005.8hPa WSW 2mph /  3.2km/h 2mph /  3.2km/h 72% 0in /  0.0mm 0 W/m2
03:06 73 °F /  22.8 °C 63.1 °F /  17.3 °C 29.7in /  1005.8hPa Calm   2mph /  3.2km/h 71% 0in /  0.0mm 0 W/m2
03:11 73 °F /  22.8 °C 62.6 °F /  17 °C 29.7in /  1005.8hPa SW 0.9mph /  1.4km/h 1mph /  1.6km/h 70% 0in /  0.0mm 0 W/m2
03:16 73 °F /  22.8 °C 62.6 °F /  17 °C 29.7in /  1005.8hPa Calm   2mph /  3.2km/h 70% 0in /  0.0mm 0 W/m2
03:21 73 °F /  22.8 °C 63.1 °F /  17.3 °C 29.7in /  1005.8hPa SW 0.9mph /  1.4km/h 2mph /  3.2km/h 71% 0in /  0.0mm 0 W/m2
03:26 73 °F /  22.8 °C 63.1 °F /  17.3 °C 29.7in /  1005.8hPa Calm   2mph /  3.2km/h 71% 0in /  0.0mm 0 W/m2
03:31 72.9 °F /  22.7 °C 62.4 °F /  16.9 °C 29.7in /  1005.8hPa Calm   2mph /  3.2km/h 70% 0in /  0.0mm 0 W/m2
03:36 72.9 °F /  22.7 °C 62.4 °F /  16.9 °C 29.7in /  1005.8hPa SE 0.9mph /  1.4km/h 2mph /  3.2km/h 70% 0in /  0.0mm 0 W/m2
03:41 72.9 °F /  22.7 °C 62.4 °F /  16.9 °C 29.7in /  1005.8hPa East 0.9mph /  1.4km/h 2mph /  3.2km/h 70% 0in /  0.0mm 0 W/m2
03:47 73 °F /  22.8 °C 61.9 °F /  16.6 °C 29.7in /  1005.8hPa Calm   2mph /  3.2km/h 68% 0in /  0.0mm 0 W/m2
03:52 73.4 °F /  23 °C 63.5 °F /  17.5 °C 29.7in /  1005.8hPa Calm     71% 0in /  0.0mm 0 W/m2
03:57 73.4 °F /  23 °C 63 °F /  17.2 °C 29.7in /  1005.8hPa East 0.9mph /  1.4km/h 2mph /  3.2km/h 70% 0in /  0.0mm 0 W/m2
04:02 73.2 °F /  22.9 °C 63.7 °F /  17.6 °C 29.7in /  1005.8hPa East 0.9mph /  1.4km/h 2mph /  3.2km/h 72% 0in /  0.0mm 0 W/m2
04:07 73 °F /  22.8 °C 63.5 °F /  17.5 °C 29.7in /  1005.8hPa Calm   1mph /  1.6km/h 72% 0in /  0.0mm 0 W/m2
04:12 72.9 °F /  22.7 °C 63.3 °F /  17.4 °C 29.7in /  1005.8hPa Calm     72% 0in /  0.0mm 0 W/m2
04:17 72.5 °F /  22.5 °C 63 °F /  17.2 °C 29.7in /  1005.8hPa South 0.9mph /  1.4km/h 2mph /  3.2km/h 72% 0in /  0.0mm 0 W/m2
04:22 72.1 °F /  22.3 °C 62.6 °F /  17 °C 29.7in /  1005.8hPa Calm   1mph /  1.6km/h 72% 0in /  0.0mm 0 W/m2
04:27 72.1 °F /  22.3 °C 63 °F /  17.2 °C 29.7in /  1005.8hPa Calm   2mph /  3.2km/h 73% 0in /  0.0mm 0 W/m2
04:32 72 °F /  22.2 °C 62.8 °F /  17.1 °C 29.7in /  1005.8hPa Calm   1mph /  1.6km/h 73% 0in /  0.0mm 0 W/m2
04:37 71.8 °F /  22.1 °C 63 °F /  17.2 °C 29.7in /  1005.8hPa South 0.9mph /  1.4km/h 1mph /  1.6km/h 74% 0in /  0.0mm 0 W/m2
04:42 71.6 °F /  22 °C 63.3 °F /  17.4 °C 29.7in /  1005.8hPa Calm     75% 0in /  0.0mm 0 W/m2
04:47 71.4 °F /  21.9 °C 63.1 °F /  17.3 °C 29.7in /  1005.8hPa Calm     75% 0in /  0.0mm 0 W/m2
04:52 71.4 °F /  21.9 °C 63.1 °F /  17.3 °C 29.7in /  1005.8hPa Calm   2mph /  3.2km/h 75% 0in /  0.0mm 0 W/m2
04:57 71.4 °F /  21.9 °C 62.8 °F /  17.1 °C 29.7in /  1005.8hPa Calm     74% 0in /  0.0mm 0 W/m2
05:02 71.4 °F /  21.9 °C 63.1 °F /  17.3 °C 29.7in /  1005.8hPa Calm     75% 0in /  0.0mm 0 W/m2
05:08 71.4 °F /  21.9 °C 63.1 °F /  17.3 °C 29.7in /  1005.8hPa Calm   1mph /  1.6km/h 75% 0in /  0.0mm 0 W/m2
05:13 71.4 °F /  21.9 °C 63.1 °F /  17.3 °C 29.7in /  1005.8hPa SSE 0.9mph /  1.4km/h 2mph /  3.2km/h 75% 0in /  0.0mm 0 W/m2
05:18 71.8 °F /  22.1 °C 63 °F /  17.2 °C 29.7in /  1005.8hPa ENE 2mph /  3.2km/h 3mph /  4.8km/h 74% 0in /  0.0mm 0 W/m2
05:23 72 °F /  22.2 °C 63.1 °F /  17.3 °C 29.7in /  1005.8hPa Calm   1mph /  1.6km/h 74% 0in /  0.0mm 0 W/m2
05:28 72 °F /  22.2 °C 63.1 °F /  17.3 °C 29.7in /  1005.8hPa Calm   3mph /  4.8km/h 74% 0in /  0.0mm 0 W/m2
05:33 72.1 °F /  22.3 °C 63.3 °F /  17.4 °C 29.7in /  1005.8hPa Calm     74% 0in /  0.0mm 0 W/m2
05:38 72 °F /  22.2 °C 63.1 °F /  17.3 °C 29.7in /  1005.8hPa Calm     74% 0in /  0.0mm 0 W/m2
05:43 72 °F /  22.2 °C 63.1 °F /  17.3 °C 29.7in /  1005.8hPa Calm     74% 0in /  0.0mm 0 W/m2
05:48 72 °F /  22.2 °C 62.8 °F /  17.1 °C 29.7in /  1005.8hPa NNW 0.9mph /  1.4km/h 3mph /  4.8km/h 73% 0in /  0.0mm 0 W/m2
05:53 72.1 °F /  22.3 °C 63 °F /  17.2 °C 29.7in /  1005.8hPa Calm     73% 0in /  0.0mm 0 W/m2
05:58 72.3 °F /  22.4 °C 63.5 °F /  17.5 °C 29.7in /  1005.8hPa NW 3mph /  4.8km/h 3mph /  4.8km/h 74% 0in /  0.0mm 0 W/m2
06:03 72.3 °F /  22.4 °C 63.1 °F /  17.3 °C 29.7in /  1006.1hPa Calm   1mph /  1.6km/h 73% 0in /  0.0mm 0 W/m2
06:08 72.7 °F /  22.6 °C 63.1 °F /  17.3 °C 29.7in /  1006.1hPa ESE 0.9mph /  1.4km/h 2mph /  3.2km/h 72% 0in /  0.0mm 0 W/m2
06:13 72.9 °F /  22.7 °C 63 °F /  17.2 °C 29.7in /  1006.1hPa Calm   1mph /  1.6km/h 71% 0in /  0.0mm 0 W/m2
06:18 73.2 °F /  22.9 °C 62.4 °F /  16.9 °C 29.7in /  1006.1hPa Calm   1mph /  1.6km/h 69% 0in /  0.0mm 0 W/m2
06:23 73.6 °F /  23.1 °C 62.8 °F /  17.1 °C 29.7in /  1006.4hPa Calm   3mph /  4.8km/h 69% 0in /  0.0mm 0 W/m2
06:28 73.9 °F /  23.3 °C 62.8 °F /  17.1 °C 29.7in /  1006.4hPa ENE 0.9mph /  1.4km/h 2mph /  3.2km/h 68% 0in /  0.0mm 0 W/m2
06:33 74.3 °F /  23.5 °C 62.6 °F /  17 °C 29.7in /  1006.4hPa Calm   2mph /  3.2km/h 67% 0in /  0.0mm 5 W/m2
06:38 74.7 °F /  23.7 °C 62.1 °F /  16.7 °C 29.7in /  1006.4hPa Calm     65% 0in /  0.0mm 5 W/m2
06:43 75.2 °F /  24 °C 62.2 °F /  16.8 °C 29.7in /  1006.4hPa NE 2mph /  3.2km/h 3mph /  4.8km/h 64% 0in /  0.0mm 7 W/m2
06:48 75.6 °F /  24.2 °C 62.1 °F /  16.7 °C 29.7in /  1006.4hPa NE 2.9mph /  4.7km/h 4mph /  6.4km/h 63% 0in /  0.0mm 9 W/m2
06:53 75.9 °F /  24.4 °C 61.9 °F /  16.6 °C 29.7in /  1006.4hPa East 2.9mph /  4.7km/h 4mph /  6.4km/h 62% 0in /  0.0mm 11 W/m2
06:58 76.5 °F /  24.7 °C 62.1 °F /  16.7 °C 29.7in /  1006.4hPa SE 2mph /  3.2km/h 2mph /  3.2km/h 61% 0in /  0.0mm 12 W/m2
07:03 76.5 °F /  24.7 °C 62.1 °F /  16.7 °C 29.7in /  1006.4hPa Calm   4mph /  6.4km/h 61% 0in /  0.0mm 19 W/m2
07:08 76.5 °F /  24.7 °C 61.5 °F /  16.4 °C 29.7in /  1006.4hPa Calm   5mph /  8km/h 60% 0in /  0.0mm 26 W/m2
07:13 76.5 °F /  24.7 °C 62.1 °F /  16.7 °C 29.7in /  1006.8hPa North 0.9mph /  1.4km/h 2mph /  3.2km/h 61% 0in /  0.0mm 30 W/m2
07:19 76.6 °F /  24.8 °C 61.7 °F /  16.5 °C 29.7in /  1006.8hPa WNW 2mph /  3.2km/h 5mph /  8km/h 60% 0in /  0.0mm 32 W/m2
07:24 76.6 °F /  24.8 °C 61.7 °F /  16.5 °C 29.7in /  1007.1hPa Calm   1mph /  1.6km/h 60% 0in /  0.0mm 32 W/m2
07:29 76.8 °F /  24.9 °C 61.9 °F /  16.6 °C 29.7in /  1007.1hPa WNW 2mph /  3.2km/h 9mph /  14.5km/h 60% 0in /  0.0mm 39 W/m2
07:34 77 °F /  25 °C 61.5 °F /  16.4 °C 29.8in /  1007.5hPa NW 2.9mph /  4.7km/h 3mph /  4.8km/h 59% 0in /  0.0mm 54 W/m2
07:39 77.2 °F /  25.1 °C 61.7 °F /  16.5 °C 29.8in /  1007.5hPa NNE 4.9mph /  7.9km/h 7mph /  11.3km/h 59% 0in /  0.0mm 70 W/m2
07:45 77.4 °F /  25.2 °C 62.4 °F /  16.9 °C 29.8in /  1007.5hPa WNW 2mph /  3.2km/h 4mph /  6.4km/h 60% 0in /  0.0mm 79 W/m2
07:50 77.5 °F /  25.3 °C 62.6 °F /  17 °C 29.8in /  1007.5hPa NNW 4mph /  6.4km/h 6mph /  9.7km/h 60% 0in /  0.0mm 74 W/m2
07:55 77.5 °F /  25.3 °C 62.6 °F /  17 °C 29.8in /  1007.5hPa NNW 2mph /  3.2km/h 7mph /  11.3km/h 60% 0in /  0.0mm 95 W/m2
08:00 77.7 °F /  25.4 °C 63.1 °F /  17.3 °C 29.8in /  1007.5hPa NW 2mph /  3.2km/h 4mph /  6.4km/h 61% 0in /  0.0mm 90 W/m2
08:05 77.5 °F /  25.3 °C 63.5 °F /  17.5 °C 29.8in /  1007.5hPa West 2mph /  3.2km/h 11mph /  17.7km/h 62% 0in /  0.0mm 86 W/m2
08:10 77.2 °F /  25.1 °C 62.6 °F /  17 °C 29.8in /  1007.8hPa West 6mph /  9.7km/h 7mph /  11.3km/h 61% 0in /  0.0mm 76 W/m2
08:15 76.8 °F /  24.9 °C 62.4 °F /  16.9 °C 29.8in /  1007.8hPa West 2mph /  3.2km/h 4mph /  6.4km/h 61% 0in /  0.0mm 76 W/m2
08:20 76.6 °F /  24.8 °C 62.2 °F /  16.8 °C 29.8in /  1007.8hPa West 8.1mph /  13km/h 8mph /  12.9km/h 61% 0in /  0.0mm 86 W/m2
08:25 76.3 °F /  24.6 °C 62.2 °F /  16.8 °C 29.8in /  1008.1hPa WSW 4.9mph /  7.9km/h 13mph /  20.9km/h 62% 0in /  0.0mm 81 W/m2
08:30 75.9 °F /  24.4 °C 62.4 °F /  16.9 °C 29.8in /  1008.1hPa WNW 6.9mph /  11.1km/h 10mph /  16.1km/h 63% 0in /  0.0mm 69 W/m2
08:35 75.7 °F /  24.3 °C 62.2 °F /  16.8 °C 29.8in /  1008.5hPa WNW 2.9mph /  4.7km/h 9mph /  14.5km/h 63% 0in /  0.0mm 62 W/m2
08:40 75.6 °F /  24.2 °C 62.1 °F /  16.7 °C 29.8in /  1008.8hPa West 4mph /  6.4km/h 10mph /  16.1km/h 63% 0in /  0.0mm 67 W/m2
08:45 75.4 °F /  24.1 °C 62.4 °F /  16.9 °C 29.8in /  1008.8hPa WNW 4mph /  6.4km/h 7mph /  11.3km/h 64% 0in /  0.0mm 77 W/m2
08:51 75.4 °F /  24.1 °C 62.4 °F /  16.9 °C 29.8in /  1009.1hPa WNW 4.9mph /  7.9km/h 6mph /  9.7km/h 64% 0in /  0.0mm 63 W/m2
08:56 75.4 °F /  24.1 °C 62.8 °F /  17.1 °C 29.8in /  1009.1hPa West 2mph /  3.2km/h 4mph /  6.4km/h 65% 0in /  0.0mm 62 W/m2
09:01 75.2 °F /  24 °C 62.2 °F /  16.8 °C 29.8in /  1008.8hPa NW 2.9mph /  4.7km/h 4mph /  6.4km/h 64% 0in /  0.0mm 58 W/m2
09:06 75 °F /  23.9 °C 62.4 °F /  16.9 °C 29.8in /  1007.8hPa North 2mph /  3.2km/h 4mph /  6.4km/h 65% 0in /  0.0mm 67 W/m2
09:11 75 °F /  23.9 °C 63 °F /  17.2 °C 29.8in /  1008.1hPa NW 0.9mph /  1.4km/h 3mph /  4.8km/h 66% 0in /  0.0mm 105 W/m2
09:16 75 °F /  23.9 °C 63 °F /  17.2 °C 29.8in /  1007.8hPa NW 2mph /  3.2km/h 2mph /  3.2km/h 66% 0in /  0.0mm 105 W/m2
09:21 75 °F /  23.9 °C 63 °F /  17.2 °C 29.8in /  1008.8hPa West 2.9mph /  4.7km/h 4mph /  6.4km/h 66% 0in /  0.0mm 132 W/m2
09:26 75 °F /  23.9 °C 63.3 °F /  17.4 °C 29.8in /  1008.8hPa Calm   1mph /  1.6km/h 67% 0in /  0.0mm 109 W/m2
09:31 75 °F /  23.9 °C 63 °F /  17.2 °C 29.8in /  1008.8hPa Calm   1mph /  1.6km/h 66% 0in /  0.0mm 111 W/m2
09:36 75.2 °F /  24 °C 63.1 °F /  17.3 °C 29.8in /  1008.5hPa Calm     66% 0in /  0.0mm 88 W/m2
09:41 75.4 °F /  24.1 °C 63.7 °F /  17.6 °C 29.8in /  1008.5hPa Calm   1mph /  1.6km/h 67% 0in /  0.0mm 153 W/m2
09:46 75.4 °F /  24.1 °C 64 °F /  17.8 °C 29.8in /  1008.8hPa Calm     68% 0in /  0.0mm 104 W/m2
09:51 75.4 °F /  24.1 °C 64.9 °F /  18.3 °C 29.8in /  1008.8hPa SW 0.9mph /  1.4km/h 1mph /  1.6km/h 70% 0in /  0.0mm 93 W/m2
09:56 75.4 °F /  24.1 °C 64.6 °F /  18.1 °C 29.8in /  1009.5hPa SW 0.9mph /  1.4km/h 2mph /  3.2km/h 69% 0in /  0.0mm 95 W/m2
10:01 75.2 °F /  24 °C 63.9 °F /  17.7 °C 29.8in /  1009.5hPa West 2mph /  3.2km/h 2mph /  3.2km/h 68% 0in /  0.0mm 90 W/m2
10:06 75 °F /  23.9 °C 64.9 °F /  18.3 °C 29.8in /  1009.1hPa SW 0.9mph /  1.4km/h 2mph /  3.2km/h 71% 0in /  0.0mm 63 W/m2
10:11 74.8 °F /  23.8 °C 65.1 °F /  18.4 °C 29.8in /  1008.8hPa Calm   1mph /  1.6km/h 72% 0in /  0.0mm 77 W/m2
10:16 74.7 °F /  23.7 °C 66.2 °F /  19 °C 29.8in /  1008.5hPa Calm     75% 0in /  0.0mm 70 W/m2
10:21 74.5 °F /  23.6 °C 66.7 °F /  19.3 °C 29.8in /  1008.8hPa SSW 2mph /  3.2km/h 2mph /  3.2km/h 77% 0in /  0.0mm 142 W/m2
10:26 73.9 °F /  23.3 °C 66.6 °F /  19.2 °C 29.8in /  1009.1hPa Calm   1mph /  1.6km/h 78% 0in /  0.0mm 207 W/m2
10:31 73.9 °F /  23.3 °C 67.1 °F /  19.5 °C 29.8in /  1009.5hPa SSW 2mph /  3.2km/h 2mph /  3.2km/h 79% 0in /  0.0mm 199 W/m2
10:36 74.3 °F /  23.5 °C 65.8 °F /  18.8 °C 29.8in /  1009.5hPa ENE 2mph /  3.2km/h 2mph /  3.2km/h 75% 0in /  0.0mm 227 W/m2
10:41 74.7 °F /  23.7 °C 65.8 °F /  18.8 °C 29.8in /  1009.8hPa WNW 2mph /  3.2km/h 3mph /  4.8km/h 74% 0in /  0.0mm 200 W/m2
10:46 74.8 °F /  23.8 °C 65.7 °F /  18.7 °C 29.8in /  1009.5hPa WNW 0.9mph /  1.4km/h 2mph /  3.2km/h 73% 0in /  0.0mm 236 W/m2
10:51 75 °F /  23.9 °C 64.9 °F /  18.3 °C 29.8in /  1009.8hPa Calm   2mph /  3.2km/h 71% 0in /  0.0mm 178 W/m2
10:56 75.4 °F /  24.1 °C 65.3 °F /  18.5 °C 29.8in /  1009.1hPa ENE 0.9mph /  1.4km/h 2mph /  3.2km/h 71% 0in /  0.0mm 165 W/m2
11:01 75.6 °F /  24.2 °C 65.5 °F /  18.6 °C 29.8in /  1009.5hPa Calm   2mph /  3.2km/h 71% 0in /  0.0mm 248 W/m2
11:06 75.9 °F /  24.4 °C 66.6 °F /  19.2 °C 29.8in /  1009.8hPa East 0.9mph /  1.4km/h 3mph /  4.8km/h 73% 0in /  0.0mm 765 W/m2
11:12 76.5 °F /  24.7 °C 66 °F /  18.9 °C 29.8in /  1009.8hPa WSW 2mph /  3.2km/h 4mph /  6.4km/h 70% 0in /  0.0mm 308 W/m2
11:17 76.6 °F /  24.8 °C 64.9 °F /  18.3 °C 29.8in /  1010.2hPa WNW 2mph /  3.2km/h 3mph /  4.8km/h 67% 0in /  0.0mm 281 W/m2
11:22 77.2 °F /  25.1 °C 64.9 °F /  18.3 °C 29.8in /  1010.2hPa WSW 2.9mph /  4.7km/h 3mph /  4.8km/h 66% 0in /  0.0mm 323 W/m2
11:27 77.4 °F /  25.2 °C 64.8 °F /  18.2 °C 29.8in /  1010.2hPa WSW 0.9mph /  1.4km/h 5mph /  8km/h 65% 0in /  0.0mm 260 W/m2
11:32 77.4 °F /  25.2 °C 65.1 °F /  18.4 °C 29.8in /  1009.8hPa Calm   1mph /  1.6km/h 66% 0in /  0.0mm 193 W/m2
11:37 77.5 °F /  25.3 °C 64.4 °F /  18 °C 29.8in /  1009.8hPa Calm   5mph /  8km/h 64% 0in /  0.0mm 181 W/m2
11:42 77.7 °F /  25.4 °C 64.9 °F /  18.3 °C 29.8in /  1009.8hPa Calm   1mph /  1.6km/h 65% 0in /  0.0mm 178 W/m2
11:47 78.1 °F /  25.6 °C 64.9 °F /  18.3 °C 29.8in /  1009.8hPa Calm     64% 0in /  0.0mm 183 W/m2
11:52 78.3 °F /  25.7 °C 65.1 °F /  18.4 °C 29.8in /  1009.8hPa Calm   1mph /  1.6km/h 64% 0in /  0.0mm 236 W/m2
11:57 78.3 °F /  25.7 °C 65.1 °F /  18.4 °C 29.8in /  1009.8hPa Calm     64% 0in /  0.0mm 248 W/m2
12:02 78.6 °F /  25.9 °C 64.9 °F /  18.3 °C 29.8in /  1010.2hPa Calm     63% 0in /  0.0mm 223 W/m2
12:07 79 °F /  26.1 °C 65.8 °F /  18.8 °C 29.8in /  1010.2hPa Calm     64% 0in /  0.0mm 246 W/m2
12:12 79.2 °F /  26.2 °C 65.8 °F /  18.8 °C 29.8in /  1010.2hPa Calm     64% 0in /  0.0mm 229 W/m2
12:17 79.3 °F /  26.3 °C 65.7 °F /  18.7 °C 29.8in /  1010.2hPa Calm     63% 0in /  0.0mm 200 W/m2
12:22 79.5 °F /  26.4 °C 65.3 °F /  18.5 °C 29.8in /  1009.8hPa Calm   1mph /  1.6km/h 62% 0in /  0.0mm 188 W/m2
12:27 79.5 °F /  26.4 °C 65.8 °F /  18.8 °C 29.8in /  1010.2hPa WNW 2mph /  3.2km/h 2mph /  3.2km/h 63% 0in /  0.0mm 130 W/m2
12:32 79.3 °F /  26.3 °C 65.7 °F /  18.7 °C 29.8in /  1010.2hPa Calm   1mph /  1.6km/h 63% 0in /  0.0mm 114 W/m2
12:37 79.2 °F /  26.2 °C 66.7 °F /  19.3 °C 29.8in /  1010.2hPa Calm     66% 0in /  0.0mm 123 W/m2
12:42 79.2 °F /  26.2 °C 66.7 °F /  19.3 °C 29.8in /  1010.2hPa Calm     66% 0in /  0.0mm 107 W/m2
12:47 79.2 °F /  26.2 °C 67.3 °F /  19.6 °C 29.8in /  1010.2hPa Calm     67% 0in /  0.0mm 118 W/m2
12:52 79 °F /  26.1 °C 66.6 °F /  19.2 °C 29.8in /  1010.2hPa Calm     66% 0in /  0.0mm 151 W/m2
12:57 79 °F /  26.1 °C 67.5 °F /  19.7 °C 29.8in /  1010.2hPa Calm     68% 0in /  0.0mm 148 W/m2
13:02 79 °F /  26.1 °C 67.1 °F /  19.5 °C 29.8in /  1010.2hPa WNW 0.9mph /  1.4km/h 2mph /  3.2km/h 67% 0in /  0.0mm 165 W/m2
13:07 78.8 °F /  26 °C 65.1 °F /  18.4 °C 29.8in /  1010.2hPa Calm   2mph /  3.2km/h 63% 0in /  0.0mm 202 W/m2
13:12 79 °F /  26.1 °C 65.3 °F /  18.5 °C 29.8in /  1010.2hPa Calm   1mph /  1.6km/h 63% 0in /  0.0mm 223 W/m2
13:17 79.2 °F /  26.2 °C 64.6 °F /  18.1 °C 29.8in /  1010.2hPa NW 2.9mph /  4.7km/h 3mph /  4.8km/h 61% 0in /  0.0mm 225 W/m2
13:22 79.2 °F /  26.2 °C 64.9 °F /  18.3 °C 29.8in /  1010.5hPa WSW 0.9mph /  1.4km/h 3mph /  4.8km/h 62% 0in /  0.0mm 214 W/m2
13:27 79.3 °F /  26.3 °C 64.8 °F /  18.2 °C 29.8in /  1010.5hPa Calm   1mph /  1.6km/h 61% 0in /  0.0mm 260 W/m2
13:32 79.5 °F /  26.4 °C 64.9 °F /  18.3 °C 29.8in /  1010.5hPa NW 0.9mph /  1.4km/h 3mph /  4.8km/h 61% 0in /  0.0mm 223 W/m2
13:37 79.9 °F /  26.6 °C 65.3 °F /  18.5 °C 29.8in /  1010.5hPa WNW 0.9mph /  1.4km/h 1mph /  1.6km/h 61% 0in /  0.0mm 253 W/m2
13:42 80.1 °F /  26.7 °C 65.5 °F /  18.6 °C 29.8in /  1010.5hPa NW 2mph /  3.2km/h 3mph /  4.8km/h 61% 0in /  0.0mm 287 W/m2
13:47 80.2 °F /  26.8 °C 65.5 °F /  18.6 °C 29.8in /  1010.5hPa Calm   1mph /  1.6km/h 61% 0in /  0.0mm 380 W/m2
13:52 80.6 °F /  27 °C 64.9 °F /  18.3 °C 29.8in /  1010.5hPa NW 0.9mph /  1.4km/h 3mph /  4.8km/h 59% 0in /  0.0mm 322 W/m2
13:57 80.8 °F /  27.1 °C 65.1 °F /  18.4 °C 29.8in /  1010.2hPa NW 0.9mph /  1.4km/h 1mph /  1.6km/h 59% 0in /  0.0mm 316 W/m2
14:02 81.1 °F /  27.3 °C 64.9 °F /  18.3 °C 29.8in /  1010.5hPa Calm   3mph /  4.8km/h 58% 0in /  0.0mm 367 W/m2
14:07 81.5 °F /  27.5 °C 64.8 °F /  18.2 °C 29.8in /  1010.5hPa Calm   4mph /  6.4km/h 57% 0in /  0.0mm 485 W/m2
14:12 81.9 °F /  27.7 °C 65.1 °F /  18.4 °C 29.8in /  1010.5hPa West 0.9mph /  1.4km/h 4mph /  6.4km/h 57% 0in /  0.0mm 483 W/m2
14:17 82.4 °F /  28 °C 65.1 °F /  18.4 °C 29.8in /  1010.5hPa Calm   3mph /  4.8km/h 56% 0in /  0.0mm 483 W/m2
14:22 82.9 °F /  28.3 °C 64 °F /  17.8 °C 29.8in /  1010.2hPa Calm   2mph /  3.2km/h 53% 0in /  0.0mm 466 W/m2
14:27 83.5 °F /  28.6 °C 64 °F /  17.8 °C 29.8in /  1010.5hPa East 2mph /  3.2km/h 4mph /  6.4km/h 52% 0in /  0.0mm 570 W/m2
14:32 83.8 °F /  28.8 °C 64.4 °F /  18 °C 29.8in /  1010.5hPa West 6mph /  9.7km/h 7mph /  11.3km/h 52% 0in /  0.0mm 974 W/m2
14:37 84.2 °F /  29 °C 63.5 °F /  17.5 °C 29.8in /  1010.5hPa SSW 0.9mph /  1.4km/h 3mph /  4.8km/h 50% 0in /  0.0mm 610 W/m2
14:42 84.4 °F /  29.1 °C 63.7 °F /  17.6 °C 29.8in /  1010.5hPa WNW 2mph /  3.2km/h 7mph /  11.3km/h 50% 0in /  0.0mm 334 W/m2
14:47 84 °F /  28.9 °C 63.9 °F /  17.7 °C 29.8in /  1010.5hPa WNW 4mph /  6.4km/h 6mph /  9.7km/h 51% 0in /  0.0mm 396 W/m2
14:52 83.7 °F /  28.7 °C 64.2 °F /  17.9 °C 29.8in /  1010.5hPa WNW 6.9mph /  11.1km/h 7mph /  11.3km/h 52% 0in /  0.0mm 369 W/m2
14:57 83.7 °F /  28.7 °C 63 °F /  17.2 °C 29.8in /  1010.5hPa West 2.9mph /  4.7km/h 3mph /  4.8km/h 50% 0in /  0.0mm 434 W/m2
15:02 83.8 °F /  28.8 °C 63.9 °F /  17.7 °C 29.8in /  1010.5hPa NE 0.9mph /  1.4km/h 3mph /  4.8km/h 51% 0in /  0.0mm 422 W/m2
15:07 84 °F /  28.9 °C 63.9 °F /  17.7 °C 29.8in /  1010.5hPa Calm   3mph /  4.8km/h 51% 0in /  0.0mm 380 W/m2
15:12 84.4 °F /  29.1 °C 63.7 °F /  17.6 °C 29.9in /  1010.8hPa North 2mph /  3.2km/h 5mph /  8km/h 50% 0in /  0.0mm 269 W/m2
15:17 84.4 °F /  29.1 °C 64.2 °F /  17.9 °C 29.8in /  1010.5hPa WNW 2.9mph /  4.7km/h 3mph /  4.8km/h 51% 0in /  0.0mm 404 W/m2
15:22 84 °F /  28.9 °C 64.6 °F /  18.1 °C 29.8in /  1010.5hPa NW 2.9mph /  4.7km/h 5mph /  8km/h 52% 0in /  0.0mm 251 W/m2
15:27 83.7 °F /  28.7 °C 64.2 °F /  17.9 °C 29.8in /  1010.5hPa WNW 2mph /  3.2km/h 7mph /  11.3km/h 52% 0in /  0.0mm 287 W/m2
15:32 83.7 °F /  28.7 °C 64.8 °F /  18.2 °C 29.8in /  1010.2hPa West 2mph /  3.2km/h 7mph /  11.3km/h 53% 0in /  0.0mm 332 W/m2
15:37 83.5 °F /  28.6 °C 64 °F /  17.8 °C 29.8in /  1010.2hPa NNW 0.9mph /  1.4km/h 4mph /  6.4km/h 52% 0in /  0.0mm 287 W/m2
15:42 83.5 °F /  28.6 °C 64 °F /  17.8 °C 29.8in /  1010.2hPa WNW 2.9mph /  4.7km/h 4mph /  6.4km/h 52% 0in /  0.0mm 334 W/m2
15:47 83.7 °F /  28.7 °C 64.8 °F /  18.2 °C 29.8in /  1010.2hPa SW 2mph /  3.2km/h 4mph /  6.4km/h 53% 0in /  0.0mm 360 W/m2
15:52 83.5 °F /  28.6 °C 64 °F /  17.8 °C 29.8in /  1010.5hPa NW 4.9mph /  7.9km/h 7mph /  11.3km/h 52% 0in /  0.0mm 295 W/m2
15:57 83.5 °F /  28.6 °C 64.6 °F /  18.1 °C 29.8in /  1010.2hPa NW 2mph /  3.2km/h 5mph /  8km/h 53% 0in /  0.0mm 258 W/m2
16:02 83.5 °F /  28.6 °C 64.6 °F /  18.1 °C 29.8in /  1010.2hPa West 2mph /  3.2km/h 3mph /  4.8km/h 53% 0in /  0.0mm 237 W/m2
16:07 83.5 °F /  28.6 °C 64 °F /  17.8 °C 29.8in /  1010.5hPa NW 2.9mph /  4.7km/h 4mph /  6.4km/h 52% 0in /  0.0mm 401 W/m2
16:12 83.7 °F /  28.7 °C 64.8 °F /  18.2 °C 29.8in /  1010.2hPa North 0.9mph /  1.4km/h 3mph /  4.8km/h 53% 0in /  0.0mm 380 W/m2
16:17 83.8 °F /  28.8 °C 64.4 °F /  18 °C 29.8in /  1010.2hPa NW 2mph /  3.2km/h 5mph /  8km/h 52% 0in /  0.0mm 385 W/m2
16:22 84.2 °F /  29 °C 65.3 °F /  18.5 °C 29.8in /  1010.2hPa North 2.9mph /  4.7km/h 3mph /  4.8km/h 53% 0in /  0.0mm 396 W/m2
16:27 84.4 °F /  29.1 °C 65.3 °F /  18.5 °C 29.8in /  1010.2hPa West 6mph /  9.7km/h 8mph /  12.9km/h 53% 0in /  0.0mm 311 W/m2
16:32 84.4 °F /  29.1 °C 65.3 °F /  18.5 °C 29.8in /  1010.5hPa WNW 8.1mph /  13km/h 8mph /  12.9km/h 53% 0in /  0.0mm 387 W/m2
16:37 84.7 °F /  29.3 °C 65.1 °F /  18.4 °C 29.8in /  1010.5hPa WNW 2.9mph /  4.7km/h 4mph /  6.4km/h 52% 0in /  0.0mm 680 W/m2
16:42 85.3 °F /  29.6 °C 65.7 °F /  18.7 °C 29.8in /  1010.2hPa WNW 0.9mph /  1.4km/h 3mph /  4.8km/h 52% 0in /  0.0mm 647 W/m2
16:47 85.3 °F /  29.6 °C 65.1 °F /  18.4 °C 29.8in /  1010.5hPa WSW 4.9mph /  7.9km/h 9mph /  14.5km/h 51% 0in /  0.0mm 199 W/m2
16:52 84.7 °F /  29.3 °C 65.7 °F /  18.7 °C 29.8in /  1010.5hPa West 2.9mph /  4.7km/h 8mph /  12.9km/h 53% 0in /  0.0mm 292 W/m2
16:57 84.2 °F /  29 °C 64.6 °F /  18.1 °C 29.8in /  1010.5hPa NW 2mph /  3.2km/h 5mph /  8km/h 52% 0in /  0.0mm 155 W/m2
17:02 84 °F /  28.9 °C 65.1 °F /  18.4 °C 29.8in /  1010.5hPa West 0.9mph /  1.4km/h 8mph /  12.9km/h 53% 0in /  0.0mm 148 W/m2
17:07 83.8 °F /  28.8 °C 64.9 °F /  18.3 °C 29.8in /  1010.5hPa Calm   2mph /  3.2km/h 53% 0in /  0.0mm 380 W/m2
17:12 84 °F /  28.9 °C 65.7 °F /  18.7 °C 29.8in /  1010.5hPa West 2mph /  3.2km/h 6mph /  9.7km/h 54% 0in /  0.0mm 388 W/m2
17:17 84.4 °F /  29.1 °C 65.8 °F /  18.8 °C 29.8in /  1010.5hPa NW 4.9mph /  7.9km/h 8mph /  12.9km/h 54% 0in /  0.0mm 517 W/m2
17:22 84.4 °F /  29.1 °C 65.3 °F /  18.5 °C 29.9in /  1010.8hPa WSW 2mph /  3.2km/h 5mph /  8km/h 53% 0in /  0.0mm 287 W/m2
17:27 84.7 °F /  29.3 °C 66.2 °F /  19 °C 29.9in /  1010.8hPa WNW 2.9mph /  4.7km/h 5mph /  8km/h 54% 0in /  0.0mm 292 W/m2
17:32 84.6 °F /  29.2 °C 65.5 °F /  18.6 °C 29.9in /  1010.8hPa West 4mph /  6.4km/h 10mph /  16.1km/h 53% 0in /  0.0mm 216 W/m2
17:37 83.8 °F /  28.8 °C 65.5 °F /  18.6 °C 29.9in /  1010.8hPa Calm   6mph /  9.7km/h 54% 0in /  0.0mm 178 W/m2
17:42 83.7 °F /  28.7 °C 65.8 °F /  18.8 °C 29.8in /  1010.5hPa NW 2mph /  3.2km/h 9mph /  14.5km/h 55% 0in /  0.0mm 181 W/m2
17:48 83.5 °F /  28.6 °C 65.7 °F /  18.7 °C 29.9in /  1010.8hPa West 4mph /  6.4km/h 7mph /  11.3km/h 55% 0in /  0.0mm 190 W/m2
17:53 83.1 °F /  28.4 °C 65.8 °F /  18.8 °C 29.9in /  1010.8hPa WNW 2mph /  3.2km/h 9mph /  14.5km/h 56% 0in /  0.0mm 162 W/m2
17:58 82.9 °F /  28.3 °C 65.7 °F /  18.7 °C 29.9in /  1010.8hPa West 0.9mph /  1.4km/h 4mph /  6.4km/h 56% 0in /  0.0mm 113 W/m2
18:03 82.8 °F /  28.2 °C 64.9 °F /  18.3 °C 29.9in /  1010.8hPa WNW 4.9mph /  7.9km/h 7mph /  11.3km/h 55% 0in /  0.0mm 135 W/m2
18:08 82.6 °F /  28.1 °C 65.3 °F /  18.5 °C 29.9in /  1010.8hPa West 4mph /  6.4km/h 8mph /  12.9km/h 56% 0in /  0.0mm 102 W/m2
18:13 82.2 °F /  27.9 °C 65.5 °F /  18.6 °C 29.9in /  1010.8hPa WNW 0.9mph /  1.4km/h 2mph /  3.2km/h 57% 0in /  0.0mm 93 W/m2
18:18 82 °F /  27.8 °C 65.3 °F /  18.5 °C 29.9in /  1010.8hPa West 2.9mph /  4.7km/h 3mph /  4.8km/h 57% 0in /  0.0mm 123 W/m2
18:23 81.9 °F /  27.7 °C 66.2 °F /  19 °C 29.9in /  1010.8hPa West 0.9mph /  1.4km/h 4mph /  6.4km/h 59% 0in /  0.0mm 70 W/m2
18:28 81.5 °F /  27.5 °C 66.2 °F /  19 °C 29.9in /  1010.8hPa WSW 0.9mph /  1.4km/h 4mph /  6.4km/h 60% 0in /  0.0mm 72 W/m2
18:33 81.1 °F /  27.3 °C 67.3 °F /  19.6 °C 29.9in /  1010.8hPa Calm     63% 0in /  0.0mm 46 W/m2
18:38 80.8 °F /  27.1 °C 66.9 °F /  19.4 °C 29.9in /  1010.8hPa Calm   4mph /  6.4km/h 63% 0in /  0.0mm 53 W/m2
18:43 80.4 °F /  26.9 °C 66.2 °F /  19 °C 29.8in /  1010.5hPa WNW 2mph /  3.2km/h 5mph /  8km/h 62% 0in /  0.0mm 86 W/m2
18:48 80.8 °F /  27.1 °C 67.5 °F /  19.7 °C 29.8in /  1010.5hPa WNW 4mph /  6.4km/h 4mph /  6.4km/h 64% 0in /  0.0mm 373 W/m2
18:53 80.8 °F /  27.1 °C 66.9 °F /  19.4 °C 29.9in /  1010.8hPa WNW 2mph /  3.2km/h 7mph /  11.3km/h 63% 0in /  0.0mm 206 W/m2
18:58 80.8 °F /  27.1 °C 66.9 °F /  19.4 °C 29.9in /  1010.8hPa West 0.9mph /  1.4km/h 3mph /  4.8km/h 63% 0in /  0.0mm 345 W/m2
19:03 80.8 °F /  27.1 °C 66.9 °F /  19.4 °C 29.9in /  1010.8hPa NW 0.9mph /  1.4km/h 4mph /  6.4km/h 63% 0in /  0.0mm 120 W/m2
19:08 80.6 °F /  27 °C 67.3 °F /  19.6 °C 29.9in /  1010.8hPa NW 2mph /  3.2km/h 2mph /  3.2km/h 64% 0in /  0.0mm 65 W/m2
19:13 80.2 °F /  26.8 °C 66.9 °F /  19.4 °C 29.9in /  1010.8hPa NNE 2mph /  3.2km/h 4mph /  6.4km/h 64% 0in /  0.0mm 42 W/m2
Juneau County Weather
Compliments of Weather Underground - 2 mb